createdAt,value
2018-07-25T06:21:55.987Z,53.8
2018-07-25T06:24:01.878Z,51.3
2018-07-25T06:26:29.997Z,51.4
2018-07-25T06:28:36.009Z,52.7
2018-07-25T06:30:41.881Z,51.6
2018-07-25T06:32:47.757Z,52.1
2018-07-25T06:34:53.957Z,52.5
2018-07-25T06:37:02.807Z,51.8
2018-07-25T06:39:08.947Z,51.1
2018-07-25T06:41:14.820Z,50.7
2018-07-25T06:43:20.914Z,51.2
2018-07-25T06:45:27.434Z,50.8
2018-07-25T06:47:33.758Z,50.4
2018-07-25T06:49:39.693Z,50.8
2018-07-25T06:51:45.787Z,50.4
2018-07-25T06:53:51.660Z,50.1
2018-07-25T06:55:57.708Z,49.7
2018-07-25T06:58:03.716Z,50
2018-07-25T07:00:09.690Z,50.6
2018-07-25T07:02:15.655Z,50.4
2018-07-25T07:04:21.621Z,50.7
2018-07-25T07:06:27.772Z,51
2018-07-25T07:08:36.273Z,50.1
2018-07-25T07:10:42.102Z,49.7
2018-07-25T07:12:48.094Z,49.9
2018-07-25T07:14:54.004Z,50.3
2018-07-25T07:16:59.989Z,50.4
2018-07-25T07:19:05.886Z,50
2018-07-25T07:21:11.895Z,49.9
2018-07-25T07:23:17.761Z,49.9
2018-07-25T07:25:23.704Z,49.7
2018-07-25T07:27:29.760Z,49.9
2018-07-25T07:29:35.813Z,50.5
2018-07-25T07:31:41.676Z,49.5
2018-07-25T07:33:47.614Z,50.3
2018-07-25T07:35:53.479Z,50.3
2018-07-25T07:37:59.625Z,49.9
2018-07-25T07:40:05.574Z,50.1
2018-07-25T07:42:11.626Z,49.7
2018-07-25T07:44:17.738Z,49.3
2018-07-25T07:46:23.952Z,48.7
2018-07-25T07:48:30.013Z,48.6
2018-07-25T07:50:36.051Z,49.1
2018-07-25T07:52:42.001Z,48.9
2018-07-25T07:54:48.062Z,48.8
2018-07-25T07:56:53.974Z,48.9
2018-07-25T07:58:59.961Z,49
2018-07-25T08:01:05.942Z,48.6
2018-07-25T08:03:11.874Z,49
2018-07-25T08:05:18.952Z,49
2018-07-25T08:07:25.121Z,48.4
2018-07-25T08:09:34.437Z,48.6
2018-07-25T08:11:40.346Z,48.7
2018-07-25T08:13:46.349Z,48.8
2018-07-25T08:15:52.404Z,48.8
2018-07-25T08:17:58.422Z,49.5
2018-07-25T08:20:05.153Z,49.6
2018-07-25T08:22:11.186Z,48.9
2018-07-25T08:24:17.144Z,49.4
2018-07-25T08:26:23.078Z,49.4
2018-07-25T08:28:30.371Z,49.4
2018-07-25T08:30:36.312Z,49.6
2018-07-25T08:31:57.057Z,49.1
2018-07-25T08:34:02.943Z,48.8
2018-07-25T08:36:08.921Z,49.2
2018-07-25T08:38:14.866Z,49.4
2018-07-25T08:40:20.736Z,49.7
2018-07-25T08:42:26.669Z,48.5
2018-07-25T08:44:32.933Z,48.9
2018-07-25T08:46:38.930Z,48.4
2018-07-25T08:48:45.039Z,49.5
2018-07-25T08:50:50.946Z,49.4
2018-07-25T08:52:57.059Z,48.4
2018-07-25T08:55:02.942Z,48.8
2018-07-25T08:57:08.829Z,49
2018-07-25T08:59:14.805Z,48.8
2018-07-25T09:01:20.896Z,48.9
2018-07-25T09:03:26.806Z,48.8
2018-07-25T09:05:32.682Z,48.7
2018-07-25T09:07:38.896Z,48.7
2018-07-25T09:09:45.657Z,48.3
2018-07-25T09:11:51.762Z,48.5
2018-07-25T09:13:57.797Z,48.2
2018-07-25T09:16:03.669Z,48.7
2018-07-25T09:18:09.627Z,48.9
2018-07-25T09:20:15.657Z,48.9
2018-07-25T09:22:21.531Z,48.5
2018-07-25T09:24:27.561Z,48.4
2018-07-25T09:26:33.513Z,48.3
2018-07-25T09:28:39.471Z,48.9
2018-07-25T09:30:45.759Z,49
2018-07-25T09:32:52.091Z,49.5
2018-07-25T09:34:58.862Z,49.4
2018-07-25T09:37:04.915Z,49
2018-07-25T09:39:10.971Z,49.1
2018-07-25T09:41:17.229Z,49.2
2018-07-25T09:43:23.300Z,49.2
2018-07-25T09:45:29.447Z,49.3
2018-07-25T09:47:37.954Z,49.7
2018-07-25T09:49:44.114Z,49.8
2018-07-25T09:51:50.274Z,49.1
2018-07-25T09:53:56.326Z,49.1
2018-07-25T09:56:03.816Z,49.5
2018-07-25T09:58:10.892Z,49.1
2018-07-25T10:00:16.976Z,49.2
2018-07-25T10:02:22.923Z,48.5
2018-07-25T10:04:28.987Z,49.5
2018-07-25T10:06:35.228Z,49.4
2018-07-25T10:08:41.995Z,49.1
2018-07-25T10:10:49.990Z,49.1
2018-07-25T10:12:56.044Z,48.9
2018-07-25T10:15:02.358Z,48.8
2018-07-25T10:17:09.359Z,49
2018-07-25T10:19:15.446Z,48.7
2018-07-25T10:21:21.520Z,48.9
2018-07-25T10:23:30.995Z,48.6
2018-07-25T10:25:38.108Z,48.6
2018-07-25T10:27:44.169Z,48.9
2018-07-25T10:29:50.224Z,48.6
2018-07-25T10:31:56.385Z,49
2018-07-25T10:34:02.434Z,49.1
2018-07-25T10:36:11.560Z,48.7
2018-07-25T10:38:17.830Z,48.2
2018-07-25T10:40:24.667Z,48.6
2018-07-25T10:42:30.682Z,48.8
2018-07-25T10:44:37.315Z,49.1
2018-07-25T10:46:43.376Z,48.2
2018-07-25T10:48:53.442Z,48.9
2018-07-25T10:51:00.112Z,49.1
2018-07-25T10:53:06.167Z,48.9
2018-07-25T10:55:12.197Z,48.9
2018-07-25T10:57:20.619Z,48.7
2018-07-25T10:59:27.176Z,48.6
2018-07-25T11:01:35.897Z,48.7
2018-07-25T12:48:08.963Z,51.2
2018-07-25T12:50:14.924Z,50.5
2018-07-25T12:52:21.588Z,50.2
2018-07-25T12:54:27.849Z,50.5
2018-07-25T12:56:34.205Z,50.1
2018-07-25T12:58:40.380Z,49.6
2018-07-25T13:00:46.419Z,49.6
